sensor_id;sensor_type;location;lat;lon;timestamp;pressure;altitude;pressure_sealevel;temperature;humidity
11523;BME280;70090;43.208;27.904;2024-02-04T00:00:12;101172.69;;;5.83;100.00
11523;BME280;70090;43.208;27.904;2024-02-04T00:02:39;101166.91;;;5.76;100.00
11523;BME280;70090;43.208;27.904;2024-02-04T00:05:08;101168.84;;;5.76;100.00
11523;BME280;70090;43.208;27.904;2024-02-04T00:07:35;101181.22;;;5.73;100.00
11523;BME280;70090;43.208;27.904;2024-02-04T00:10:02;101184.78;;;5.65;100.00
11523;BME280;70090;43.208;27.904;2024-02-04T00:12:29;101189.09;;;5.66;100.00
11523;BME280;70090;43.208;27.904;2024-02-04T00:14:56;101177.03;;;5.67;100.00
11523;BME280;70090;43.208;27.904;2024-02-04T00:17:23;101191.03;;;5.66;100.00
11523;BME280;70090;43.208;27.904;2024-02-04T00:19:55;101180.28;;;5.61;100.00
11523;BME280;70090;43.208;27.904;2024-02-04T00:22:24;101163.94;;;5.52;100.00
11523;BME280;70090;43.208;27.904;2024-02-04T00:24:51;101171.63;;;5.59;100.00
11523;BME280;70090;43.208;27.904;2024-02-04T00:27:18;101184.47;;;5.58;100.00
11523;BME280;70090;43.208;27.904;2024-02-04T00:29:45;101179.00;;;5.58;100.00
11523;BME280;70090;43.208;27.904;2024-02-04T00:32:12;101183.38;;;5.59;100.00
11523;BME280;70090;43.208;27.904;2024-02-04T00:34:39;101187.03;;;5.63;100.00
11523;BME280;70090;43.208;27.904;2024-02-04T00:37:06;101164.72;;;5.61;100.00
11523;BME280;70090;43.208;27.904;2024-02-04T00:39:34;101171.59;;;5.67;100.00
11523;BME280;70090;43.208;27.904;2024-02-04T00:42:01;101178.94;;;5.75;100.00
11523;BME280;70090;43.208;27.904;2024-02-04T00:44:28;101184.56;;;5.87;100.00
11523;BME280;70090;43.208;27.904;2024-02-04T00:46:56;101173.56;;;5.96;100.00
11523;BME280;70090;43.208;27.904;2024-02-04T00:49:23;101187.22;;;6.04;100.00
11523;BME280;70090;43.208;27.904;2024-02-04T00:51:51;101171.59;;;6.13;100.00
11523;BME280;70090;43.208;27.904;2024-02-04T00:54:18;101158.19;;;6.20;100.00
11523;BME280;70090;43.208;27.904;2024-02-04T00:56:47;101153.69;;;6.24;100.00
11523;BME280;70090;43.208;27.904;2024-02-04T00:59:14;101153.69;;;6.24;100.00
11523;BME280;70090;43.208;27.904;2024-02-04T01:01:41;101146.63;;;6.23;100.00
11523;BME280;70090;43.208;27.904;2024-02-04T01:04:09;101159.16;;;6.24;100.00
11523;BME280;70090;43.208;27.904;2024-02-04T01:06:36;101163.25;;;6.30;100.00
11523;BME280;70090;43.208;27.904;2024-02-04T01:09:03;101160.75;;;6.46;100.00
11523;BME280;70090;43.208;27.904;2024-02-04T01:11:30;101168.88;;;6.54;100.00
11523;BME280;70090;43.208;27.904;2024-02-04T01:13:58;101172.13;;;6.56;100.00
11523;BME280;70090;43.208;27.904;2024-02-04T01:16:25;101183.84;;;6.57;100.00
11523;BME280;70090;43.208;27.904;2024-02-04T01:18:53;101181.91;;;6.57;100.00
11523;BME280;70090;43.208;27.904;2024-02-04T01:21:20;101176.09;;;6.59;100.00
11523;BME280;70090;43.208;27.904;2024-02-04T01:23:47;101168.38;;;6.61;100.00
11523;BME280;70090;43.208;27.904;2024-02-04T01:26:14;101179.19;;;6.57;100.00
11523;BME280;70090;43.208;27.904;2024-02-04T01:28:41;101149.66;;;6.42;100.00
11523;BME280;70090;43.208;27.904;2024-02-04T01:31:09;101161.19;;;6.56;100.00
11523;BME280;70090;43.208;27.904;2024-02-04T01:33:36;101156.63;;;6.60;100.00
11523;BME280;70090;43.208;27.904;2024-02-04T01:36:04;101162.03;;;6.69;100.00
11523;BME280;70090;43.208;27.904;2024-02-04T01:38:31;101153.88;;;6.81;100.00
11523;BME280;70090;43.208;27.904;2024-02-04T01:40:58;101155.19;;;6.95;100.00
11523;BME280;70090;43.208;27.904;2024-02-04T01:43:25;101147.25;;;7.02;100.00
11523;BME280;70090;43.208;27.904;2024-02-04T01:45:52;101149.75;;;7.07;100.00
11523;BME280;70090;43.208;27.904;2024-02-04T01:48:21;101134.28;;;7.11;100.00
11523;BME280;70090;43.208;27.904;2024-02-04T01:50:50;101135.19;;;7.15;100.00
11523;BME280;70090;43.208;27.904;2024-02-04T01:53:19;101131.47;;;7.20;100.00
11523;BME280;70090;43.208;27.904;2024-02-04T01:55:49;101130.00;;;7.22;100.00
11523;BME280;70090;43.208;27.904;2024-02-04T01:58:16;101110.47;;;7.23;100.00
11523;BME280;70090;43.208;27.904;2024-02-04T02:00:45;101114.94;;;7.28;100.00
11523;BME280;70090;43.208;27.904;2024-02-04T02:03:12;101124.41;;;7.30;100.00
11523;BME280;70090;43.208;27.904;2024-02-04T02:05:42;101098.19;;;7.29;100.00
11523;BME280;70090;43.208;27.904;2024-02-04T02:08:09;101106.72;;;7.28;100.00
11523;BME280;70090;43.208;27.904;2024-02-04T02:10:37;101096.69;;;7.20;100.00
11523;BME280;70090;43.208;27.904;2024-02-04T02:13:09;101097.78;;;7.07;100.00
11523;BME280;70090;43.208;27.904;2024-02-04T02:15:42;101086.78;;;6.95;100.00
11523;BME280;70090;43.208;27.904;2024-02-04T02:18:16;101097.59;;;6.92;100.00
11523;BME280;70090;43.208;27.904;2024-02-04T02:21:10;101089.16;;;6.85;100.00
11523;BME280;70090;43.208;27.904;2024-02-04T02:23:51;101089.28;;;6.88;100.00
11523;BME280;70090;43.208;27.904;2024-02-04T02:26:21;101085.16;;;6.82;100.00
11523;BME280;70090;43.208;27.904;2024-02-04T02:28:49;101093.38;;;6.82;100.00
11523;BME280;70090;43.208;27.904;2024-02-04T02:31:16;101068.03;;;6.73;100.00
11523;BME280;70090;43.208;27.904;2024-02-04T02:33:43;101081.75;;;6.85;100.00
11523;BME280;70090;43.208;27.904;2024-02-04T02:36:13;101084.97;;;6.87;100.00
11523;BME280;70090;43.208;27.904;2024-02-04T02:38:51;101083.16;;;6.91;100.00
11523;BME280;70090;43.208;27.904;2024-02-04T02:41:21;101083.59;;;6.93;100.00
11523;BME280;70090;43.208;27.904;2024-02-04T02:43:51;101088.28;;;6.93;100.00
11523;BME280;70090;43.208;27.904;2024-02-04T02:46:19;101085.88;;;6.91;100.00
11523;BME280;70090;43.208;27.904;2024-02-04T02:48:46;101077.34;;;6.93;100.00
11523;BME280;70090;43.208;27.904;2024-02-04T02:51:14;101089.06;;;6.93;100.00
11523;BME280;70090;43.208;27.904;2024-02-04T02:53:41;101085.19;;;6.94;100.00
11523;BME280;70090;43.208;27.904;2024-02-04T02:56:08;101084.06;;;6.95;100.00
11523;BME280;70090;43.208;27.904;2024-02-04T02:58:35;101092.72;;;6.97;100.00
11523;BME280;70090;43.208;27.904;2024-02-04T03:01:03;101097.88;;;6.99;100.00
11523;BME280;70090;43.208;27.904;2024-02-04T03:03:30;101094.13;;;7.03;100.00
11523;BME280;70090;43.208;27.904;2024-02-04T03:05:57;101102.47;;;7.07;100.00
11523;BME280;70090;43.208;27.904;2024-02-04T03:08:24;101095.53;;;7.09;100.00
11523;BME280;70090;43.208;27.904;2024-02-04T03:10:51;101099.16;;;7.13;100.00
11523;BME280;70090;43.208;27.904;2024-02-04T03:13:18;101105.56;;;7.17;100.00
11523;BME280;70090;43.208;27.904;2024-02-04T03:15:46;101107.16;;;7.18;100.00
11523;BME280;70090;43.208;27.904;2024-02-04T03:18:13;101103.06;;;7.24;100.00
11523;BME280;70090;43.208;27.904;2024-02-04T03:20:40;101104.34;;;7.27;100.00
11523;BME280;70090;43.208;27.904;2024-02-04T03:23:08;101108.81;;;7.31;100.00
11523;BME280;70090;43.208;27.904;2024-02-04T03:25:34;101107.66;;;7.32;100.00
11523;BME280;70090;43.208;27.904;2024-02-04T03:28:02;101110.84;;;7.34;100.00
11523;BME280;70090;43.208;27.904;2024-02-04T03:30:29;101090.78;;;7.30;100.00
11523;BME280;70090;43.208;27.904;2024-02-04T03:32:57;101077.84;;;7.19;100.00
11523;BME280;70090;43.208;27.904;2024-02-04T03:35:24;101095.00;;;7.28;100.00
11523;BME280;70090;43.208;27.904;2024-02-04T03:37:51;101102.84;;;7.29;100.00
11523;BME280;70090;43.208;27.904;2024-02-04T03:40:18;101097.38;;;7.29;100.00
11523;BME280;70090;43.208;27.904;2024-02-04T03:42:49;101107.66;;;7.32;100.00
11523;BME280;70090;43.208;27.904;2024-02-04T03:45:16;101095.34;;;7.38;100.00
11523;BME280;70090;43.208;27.904;2024-02-04T03:47:43;101107.22;;;7.42;100.00
11523;BME280;70090;43.208;27.904;2024-02-04T03:50:12;101107.22;;;7.42;100.00
11523;BME280;70090;43.208;27.904;2024-02-04T03:52:39;101093.66;;;7.45;100.00
11523;BME280;70090;43.208;27.904;2024-02-04T03:55:06;101091.69;;;7.46;100.00
11523;BME280;70090;43.208;27.904;2024-02-04T03:57:33;101099.81;;;7.54;100.00
11523;BME280;70090;43.208;27.904;2024-02-04T04:00:00;101104.06;;;7.64;100.00
11523;BME280;70090;43.208;27.904;2024-02-04T04:02:28;101099.47;;;7.68;100.00
11523;BME280;70090;43.208;27.904;2024-02-04T04:04:55;101098.56;;;7.76;100.00
11523;BME280;70090;43.208;27.904;2024-02-04T04:07:24;101077.91;;;7.78;100.00
11523;BME280;70090;43.208;27.904;2024-02-04T04:09:51;101088.50;;;7.80;100.00
11523;BME280;70090;43.208;27.904;2024-02-04T04:12:18;101079.41;;;7.76;100.00
11523;BME280;70090;43.208;27.904;2024-02-04T04:14:45;101079.59;;;7.71;100.00
11523;BME280;70090;43.208;27.904;2024-02-04T04:17:12;101086.13;;;7.66;100.00
11523;BME280;70090;43.208;27.904;2024-02-04T04:19:39;101083.84;;;7.68;100.00
11523;BME280;70090;43.208;27.904;2024-02-04T04:22:06;101089.66;;;7.67;100.00
11523;BME280;70090;43.208;27.904;2024-02-04T04:24:34;101076.88;;;7.71;100.00
11523;BME280;70090;43.208;27.904;2024-02-04T04:27:01;101080.66;;;7.78;100.00
11523;BME280;70090;43.208;27.904;2024-02-04T04:29:28;101086.00;;;7.87;100.00
11523;BME280;70090;43.208;27.904;2024-02-04T04:31:55;101088.50;;;7.92;100.00
11523;BME280;70090;43.208;27.904;2024-02-04T04:34:22;101095.03;;;7.99;100.00
11523;BME280;70090;43.208;27.904;2024-02-04T04:36:49;101078.59;;;7.99;100.00
11523;BME280;70090;43.208;27.904;2024-02-04T04:39:16;101077.88;;;8.02;100.00
11523;BME280;70090;43.208;27.904;2024-02-04T04:41:45;101070.94;;;8.05;100.00
11523;BME280;70090;43.208;27.904;2024-02-04T04:44:12;101068.63;;;8.07;100.00
11523;BME280;70090;43.208;27.904;2024-02-04T04:46:39;101072.84;;;8.04;100.00
11523;BME280;70090;43.208;27.904;2024-02-04T04:49:06;101074.56;;;8.09;100.00
11523;BME280;70090;43.208;27.904;2024-02-04T04:51:33;101078.19;;;8.13;100.00
11523;BME280;70090;43.208;27.904;2024-02-04T04:54:00;101080.94;;;8.13;100.00
11523;BME280;70090;43.208;27.904;2024-02-04T04:56:27;101085.53;;;8.09;100.00
11523;BME280;70090;43.208;27.904;2024-02-04T04:58:56;101084.38;;;8.10;100.00
11523;BME280;70090;43.208;27.904;2024-02-04T05:01:23;101077.41;;;8.12;100.00
11523;BME280;70090;43.208;27.904;2024-02-04T05:03:50;101079.78;;;8.14;100.00
11523;BME280;70090;43.208;27.904;2024-02-04T05:06:17;101072.16;;;8.19;100.00
11523;BME280;70090;43.208;27.904;2024-02-04T05:08:44;101083.94;;;8.20;100.00
11523;BME280;70090;43.208;27.904;2024-02-04T05:11:11;101090.25;;;8.20;100.00
11523;BME280;70090;43.208;27.904;2024-02-04T05:13:38;101068.38;;;8.24;100.00
11523;BME280;70090;43.208;27.904;2024-02-04T05:16:07;101078.19;;;8.25;100.00
11523;BME280;70090;43.208;27.904;2024-02-04T05:18:34;101072.03;;;8.28;100.00
11523;BME280;70090;43.208;27.904;2024-02-04T05:21:01;101084.28;;;8.30;100.00
11523;BME280;70090;43.208;27.904;2024-02-04T05:23:28;101091.09;;;8.36;100.00
11523;BME280;70090;43.208;27.904;2024-02-04T05:25:55;101095.53;;;8.41;100.00
11523;BME280;70090;43.208;27.904;2024-02-04T05:28:22;101089.91;;;8.49;100.00
11523;BME280;70090;43.208;27.904;2024-02-04T05:30:49;101088.66;;;8.59;100.00
11523;BME280;70090;43.208;27.904;2024-02-04T05:33:18;101076.69;;;8.67;100.00
11523;BME280;70090;43.208;27.904;2024-02-04T05:35:45;101082.41;;;8.74;100.00
11523;BME280;70090;43.208;27.904;2024-02-04T05:38:12;101079.41;;;8.79;100.00
11523;BME280;70090;43.208;27.904;2024-02-04T05:40:39;101078.72;;;8.82;100.00
11523;BME280;70090;43.208;27.904;2024-02-04T05:43:06;101079.69;;;8.89;100.00
11523;BME280;70090;43.208;27.904;2024-02-04T05:45:36;101082.56;;;8.93;100.00
11523;BME280;70090;43.208;27.904;2024-02-04T05:48:05;101068.47;;;8.94;100.00
11523;BME280;70090;43.208;27.904;2024-02-04T05:50:33;101070.84;;;8.96;100.00
11523;BME280;70090;43.208;27.904;2024-02-04T05:53:00;101069.03;;;9.00;100.00
11523;BME280;70090;43.208;27.904;2024-02-04T05:55:27;101067.88;;;9.01;100.00
11523;BME280;70090;43.208;27.904;2024-02-04T05:57:54;101074.16;;;9.01;100.00
11523;BME280;70090;43.208;27.904;2024-02-04T06:00:21;101082.38;;;9.01;100.00
11523;BME280;70090;43.208;27.904;2024-02-04T06:02:48;101076.13;;;9.01;100.00
11523;BME280;70090;43.208;27.904;2024-02-04T06:05:15;101070.63;;;9.01;100.00
11523;BME280;70090;43.208;27.904;2024-02-04T06:07:44;101073.81;;;9.03;100.00
11523;BME280;70090;43.208;27.904;2024-02-04T06:10:11;101072.31;;;9.05;100.00
11523;BME280;70090;43.208;27.904;2024-02-04T06:12:38;101076.19;;;9.04;100.00
11523;BME280;70090;43.208;27.904;2024-02-04T06:15:12;101069.19;;;9.07;100.00
11523;BME280;70090;43.208;27.904;2024-02-04T06:17:39;101068.16;;;9.11;100.00
11523;BME280;70090;43.208;27.904;2024-02-04T06:20:07;101064.34;;;9.16;100.00
11523;BME280;70090;43.208;27.904;2024-02-04T06:22:34;101071.88;;;9.19;100.00
11523;BME280;70090;43.208;27.904;2024-02-04T06:25:03;101078.28;;;9.23;100.00
11523;BME280;70090;43.208;27.904;2024-02-04T06:27:30;101080.75;;;9.28;100.00
11523;BME280;70090;43.208;27.904;2024-02-04T06:29:57;101088.03;;;9.36;100.00
11523;BME280;70090;43.208;27.904;2024-02-04T06:32:24;101087.75;;;9.41;100.00
11523;BME280;70090;43.208;27.904;2024-02-04T06:34:51;101078.72;;;9.40;100.00
11523;BME280;70090;43.208;27.904;2024-02-04T06:37:21;101093.88;;;9.50;100.00
11523;BME280;70090;43.208;27.904;2024-02-04T06:39:48;101093.09;;;9.49;100.00
11523;BME280;70090;43.208;27.904;2024-02-04T06:42:16;101096.63;;;9.50;100.00
11523;BME280;70090;43.208;27.904;2024-02-04T06:44:43;101091.13;;;9.50;100.00
11523;BME280;70090;43.208;27.904;2024-02-04T06:47:11;101100.53;;;9.49;100.00
11523;BME280;70090;43.208;27.904;2024-02-04T06:49:39;101098.66;;;9.53;100.00
11523;BME280;70090;43.208;27.904;2024-02-04T06:52:07;101098.66;;;9.53;100.00
11523;BME280;70090;43.208;27.904;2024-02-04T06:54:34;101098.66;;;9.53;100.00
11523;BME280;70090;43.208;27.904;2024-02-04T06:57:01;101083.31;;;9.52;100.00
11523;BME280;70090;43.208;27.904;2024-02-04T06:59:29;101081.91;;;9.58;100.00
11523;BME280;70090;43.208;27.904;2024-02-04T07:01:56;101083.16;;;9.60;100.00
11523;BME280;70090;43.208;27.904;2024-02-04T07:04:23;101084.03;;;9.64;100.00
11523;BME280;70090;43.208;27.904;2024-02-04T07:06:50;101082.53;;;9.67;100.00
11523;BME280;70090;43.208;27.904;2024-02-04T07:09:18;101086.34;;;9.77;100.00
11523;BME280;70090;43.208;27.904;2024-02-04T07:11:45;101079.84;;;9.85;100.00
11523;BME280;70090;43.208;27.904;2024-02-04T07:14:13;101072.91;;;9.91;100.00
11523;BME280;70090;43.208;27.904;2024-02-04T07:16:41;101075.22;;;10.05;100.00
11523;BME280;70090;43.208;27.904;2024-02-04T07:19:08;101078.22;;;10.15;100.00
11523;BME280;70090;43.208;27.904;2024-02-04T07:21:35;101079.97;;;10.23;100.00
11523;BME280;70090;43.208;27.904;2024-02-04T07:24:03;101096.78;;;10.37;100.00
11523;BME280;70090;43.208;27.904;2024-02-04T07:26:30;101099.44;;;10.49;100.00
11523;BME280;70090;43.208;27.904;2024-02-04T07:28:57;101099.72;;;10.63;100.00
11523;BME280;70090;43.208;27.904;2024-02-04T07:31:24;101100.72;;;10.74;100.00
11523;BME280;70090;43.208;27.904;2024-02-04T07:33:52;101109.16;;;10.81;100.00
11523;BME280;70090;43.208;27.904;2024-02-04T07:36:19;101093.91;;;10.87;100.00
11523;BME280;70090;43.208;27.904;2024-02-04T07:38:46;101085.66;;;10.87;100.00
11523;BME280;70090;43.208;27.904;2024-02-04T07:41:14;101098.56;;;10.83;100.00
11523;BME280;70090;43.208;27.904;2024-02-04T07:43:42;101085.22;;;10.85;100.00
11523;BME280;70090;43.208;27.904;2024-02-04T07:46:09;101075.94;;;10.93;100.00
11523;BME280;70090;43.208;27.904;2024-02-04T07:48:36;101083.03;;;10.94;100.00
11523;BME280;70090;43.208;27.904;2024-02-04T07:51:05;101082.31;;;10.97;100.00
11523;BME280;70090;43.208;27.904;2024-02-04T07:53:33;101094.91;;;10.98;100.00
11523;BME280;70090;43.208;27.904;2024-02-04T07:56:01;101091.88;;;11.03;100.00
11523;BME280;70090;43.208;27.904;2024-02-04T07:58:29;101099.69;;;11.01;100.00
11523;BME280;70090;43.208;27.904;2024-02-04T08:00:56;101104.84;;;11.03;100.00
11523;BME280;70090;43.208;27.904;2024-02-04T08:03:23;101105.16;;;10.98;100.00
11523;BME280;70090;43.208;27.904;2024-02-04T08:05:50;101117.03;;;11.02;100.00
11523;BME280;70090;43.208;27.904;2024-02-04T08:08:18;101114.69;;;11.04;100.00
11523;BME280;70090;43.208;27.904;2024-02-04T08:10:45;101123.34;;;11.02;100.00
11523;BME280;70090;43.208;27.904;2024-02-04T08:13:12;101131.03;;;10.93;100.00
11523;BME280;70090;43.208;27.904;2024-02-04T08:15:39;101123.09;;;10.92;100.00
11523;BME280;70090;43.208;27.904;2024-02-04T08:18:06;101111.94;;;10.85;100.00
11523;BME280;70090;43.208;27.904;2024-02-04T08:20:33;101107.97;;;10.82;100.00
11523;BME280;70090;43.208;27.904;2024-02-04T08:23:00;101105.16;;;10.79;100.00
11523;BME280;70090;43.208;27.904;2024-02-04T08:25:29;101107.97;;;10.82;100.00
11523;BME280;70090;43.208;27.904;2024-02-04T08:27:56;101112.69;;;10.82;100.00
11523;BME280;70090;43.208;27.904;2024-02-04T08:30:23;101092.31;;;10.86;100.00
11523;BME280;70090;43.208;27.904;2024-02-04T08:32:50;101079.72;;;10.85;100.00
11523;BME280;70090;43.208;27.904;2024-02-04T08:35:17;101086.88;;;10.90;100.00
11523;BME280;70090;43.208;27.904;2024-02-04T08:37:44;101092.31;;;10.86;100.00
11523;BME280;70090;43.208;27.904;2024-02-04T08:40:11;101065.53;;;10.83;100.00
11523;BME280;70090;43.208;27.904;2024-02-04T08:42:40;101070.38;;;10.90;100.00
11523;BME280;70090;43.208;27.904;2024-02-04T08:45:07;101083.03;;;10.94;100.00
11523;BME280;70090;43.208;27.904;2024-02-04T08:47:35;101090.22;;;10.99;100.00
11523;BME280;70090;43.208;27.904;2024-02-04T08:50:02;101075.28;;;11.00;100.00
11523;BME280;70090;43.208;27.904;2024-02-04T08:52:29;101072.88;;;10.98;100.00
11523;BME280;70090;43.208;27.904;2024-02-04T08:54:56;101079.56;;;10.97;100.00
11523;BME280;70090;43.208;27.904;2024-02-04T08:57:24;101071.72;;;10.99;100.00
11523;BME280;70090;43.208;27.904;2024-02-04T08:59:52;101073.31;;;11.00;100.00
11523;BME280;70090;43.208;27.904;2024-02-04T09:02:19;101069.34;;;10.98;100.00
11523;BME280;70090;43.208;27.904;2024-02-04T09:04:46;101057.94;;;10.99;100.00
11523;BME280;70090;43.208;27.904;2024-02-04T09:07:13;101075.06;;;10.89;100.00
11523;BME280;70090;43.208;27.904;2024-02-04T09:09:40;101080.72;;;10.96;100.00
11523;BME280;70090;43.208;27.904;2024-02-04T09:12:09;101083.03;;;10.94;100.00
11523;BME280;70090;43.208;27.904;2024-02-04T09:14:36;101080.41;;;11.01;100.00
11523;BME280;70090;43.208;27.904;2024-02-04T09:17:05;101062.44;;;11.07;100.00
11523;BME280;70090;43.208;27.904;2024-02-04T09:19:32;101083.31;;;11.08;100.00
11523;BME280;70090;43.208;27.904;2024-02-04T09:21:59;101054.59;;;11.09;100.00
11523;BME280;70090;43.208;27.904;2024-02-04T09:24:27;101063.00;;;11.16;100.00
11523;BME280;70090;43.208;27.904;2024-02-04T09:26:54;101057.91;;;11.18;100.00
11523;BME280;70090;43.208;27.904;2024-02-04T09:29:21;101052.91;;;11.24;100.00
11523;BME280;70090;43.208;27.904;2024-02-04T09:31:48;101059.94;;;11.21;100.00
11523;BME280;70090;43.208;27.904;2024-02-04T09:34:18;101054.75;;;11.16;100.00
11523;BME280;70090;43.208;27.904;2024-02-04T09:36:45;101048.06;;;11.17;100.00
11523;BME280;70090;43.208;27.904;2024-02-04T09:39:12;101052.34;;;11.15;100.00
11523;BME280;70090;43.208;27.904;2024-02-04T09:41:39;101051.97;;;11.16;100.00
11523;BME280;70090;43.208;27.904;2024-02-04T09:44:07;101043.41;;;11.21;100.00
11523;BME280;70090;43.208;27.904;2024-02-04T09:46:35;101041.38;;;11.18;100.00
11523;BME280;70090;43.208;27.904;2024-02-04T09:49:02;101047.63;;;11.15;100.00
11523;BME280;70090;43.208;27.904;2024-02-04T09:51:31;101025.97;;;11.14;100.00
11523;BME280;70090;43.208;27.904;2024-02-04T09:54:03;101028.47;;;11.22;100.00
11523;BME280;70090;43.208;27.904;2024-02-04T09:56:32;101020.88;;;11.38;100.00
11523;BME280;70090;43.208;27.904;2024-02-04T09:59:01;101022.88;;;11.41;100.00
11523;BME280;70090;43.208;27.904;2024-02-04T10:01:28;101013.84;;;11.41;100.00
11523;BME280;70090;43.208;27.904;2024-02-04T10:03:55;100998.91;;;11.42;100.00
11523;BME280;70090;43.208;27.904;2024-02-04T10:06:22;100998.22;;;11.48;100.00
11523;BME280;70090;43.208;27.904;2024-02-04T10:08:51;101000.78;;;11.60;100.00
11523;BME280;70090;43.208;27.904;2024-02-04T10:11:18;100991.94;;;11.74;100.00
11523;BME280;70090;43.208;27.904;2024-02-04T10:13:46;101005.88;;;11.84;100.00
11523;BME280;70090;43.208;27.904;2024-02-04T10:16:14;100998.47;;;12.18;100.00
11523;BME280;70090;43.208;27.904;2024-02-04T10:18:42;100982.75;;;12.22;100.00
11523;BME280;70090;43.208;27.904;2024-02-04T10:21:16;100998.06;;;12.16;100.00
11523;BME280;70090;43.208;27.904;2024-02-04T10:23:45;101007.31;;;12.30;100.00
11523;BME280;70090;43.208;27.904;2024-02-04T10:26:13;101002.00;;;12.47;99.43
11523;BME280;70090;43.208;27.904;2024-02-04T10:28:41;101000.94;;;12.59;97.82
11523;BME280;70090;43.208;27.904;2024-02-04T10:31:08;100998.78;;;12.75;96.79
11523;BME280;70090;43.208;27.904;2024-02-04T10:33:37;100987.22;;;12.99;95.95
11523;BME280;70090;43.208;27.904;2024-02-04T10:36:04;100993.34;;;13.22;94.67
11523;BME280;70090;43.208;27.904;2024-02-04T10:38:32;100991.13;;;13.38;93.77
11523;BME280;70090;43.208;27.904;2024-02-04T10:41:01;100978.50;;;13.44;92.95
11523;BME280;70090;43.208;27.904;2024-02-04T10:43:32;100987.19;;;13.39;89.69
11523;BME280;70090;43.208;27.904;2024-02-04T10:46:03;100970.16;;;13.33;89.44
11523;BME280;70090;43.208;27.904;2024-02-04T10:48:37;100978.81;;;13.32;89.72
11523;BME280;70090;43.208;27.904;2024-02-04T10:51:12;100972.94;;;13.37;90.17
11523;BME280;70090;43.208;27.904;2024-02-04T10:53:41;100967.44;;;13.37;90.04
11523;BME280;70090;43.208;27.904;2024-02-04T10:56:13;100969.13;;;13.55;89.82
11523;BME280;70090;43.208;27.904;2024-02-04T10:58:44;100972.63;;;13.45;91.06
11523;BME280;70090;43.208;27.904;2024-02-04T11:01:11;100983.81;;;13.16;93.13
11523;BME280;70090;43.208;27.904;2024-02-04T11:03:39;100960.66;;;12.91;94.77
11523;BME280;70090;43.208;27.904;2024-02-04T11:06:07;100968.03;;;12.80;95.93
11523;BME280;70090;43.208;27.904;2024-02-04T11:08:35;100960.19;;;12.85;96.43
11523;BME280;70090;43.208;27.904;2024-02-04T11:11:02;100962.34;;;12.99;93.50
11523;BME280;70090;43.208;27.904;2024-02-04T11:13:29;100948.31;;;13.18;90.86
11523;BME280;70090;43.208;27.904;2024-02-04T11:16:02;100950.41;;;13.35;88.84
11523;BME280;70090;43.208;27.904;2024-02-04T11:18:42;100939.06;;;13.50;87.46
11523;BME280;70090;43.208;27.904;2024-02-04T11:24:26;100954.28;;;13.81;84.16
11523;BME280;70090;43.208;27.904;2024-02-04T11:26:56;100950.69;;;13.73;83.75
11523;BME280;70090;43.208;27.904;2024-02-04T11:29:24;100950.25;;;13.64;83.36
11523;BME280;70090;43.208;27.904;2024-02-04T11:31:54;100961.69;;;13.63;83.44
11523;BME280;70090;43.208;27.904;2024-02-04T11:34:21;100965.94;;;13.50;83.49
11523;BME280;70090;43.208;27.904;2024-02-04T11:36:49;100959.59;;;13.49;83.61
11523;BME280;70090;43.208;27.904;2024-02-04T11:39:18;100958.81;;;13.49;83.93
11523;BME280;70090;43.208;27.904;2024-02-04T11:41:48;100958.72;;;13.38;84.37
11523;BME280;70090;43.208;27.904;2024-02-04T11:44:20;100974.06;;;13.29;85.04
11523;BME280;70090;43.208;27.904;2024-02-04T11:46:48;100959.47;;;13.32;85.06
11523;BME280;70090;43.208;27.904;2024-02-04T11:49:17;100966.53;;;13.26;85.74
11523;BME280;70090;43.208;27.904;2024-02-04T11:51:47;100997.75;;;13.30;85.88
11523;BME280;70090;43.208;27.904;2024-02-04T11:54:15;100965.78;;;13.29;86.17
11523;BME280;70090;43.208;27.904;2024-02-04T11:56:45;100966.53;;;13.26;86.09
11523;BME280;70090;43.208;27.904;2024-02-04T11:59:18;100986.34;;;13.31;85.61
11523;BME280;70090;43.208;27.904;2024-02-04T12:01:46;100972.50;;;13.35;85.69
11523;BME280;70090;43.208;27.904;2024-02-04T12:04:17;100975.31;;;13.38;85.81
11523;BME280;70090;43.208;27.904;2024-02-04T12:06:44;100980.88;;;13.42;85.94
11523;BME280;70090;43.208;27.904;2024-02-04T12:09:11;100991.59;;;13.47;85.86
11523;BME280;70090;43.208;27.904;2024-02-04T12:11:39;100987.28;;;13.53;85.67
11523;BME280;70090;43.208;27.904;2024-02-04T12:14:07;100975.41;;;13.49;86.69
11523;BME280;70090;43.208;27.904;2024-02-04T12:16:34;100964.75;;;13.51;87.12
11523;BME280;70090;43.208;27.904;2024-02-04T12:19:02;100968.28;;;13.48;86.64
11523;BME280;70090;43.208;27.904;2024-02-04T12:21:31;100956.88;;;13.53;85.52
11523;BME280;70090;43.208;27.904;2024-02-04T12:23:59;100963.19;;;13.53;85.74
11523;BME280;70090;43.208;27.904;2024-02-04T12:26:26;100960.44;;;13.53;85.15
11523;BME280;70090;43.208;27.904;2024-02-04T12:28:53;100960.44;;;13.53;85.14
11523;BME280;70090;43.208;27.904;2024-02-04T12:31:22;100954.91;;;13.57;85.04
11523;BME280;70090;43.208;27.904;2024-02-04T12:33:52;100955.75;;;13.61;85.43
11523;BME280;70090;43.208;27.904;2024-02-04T12:36:23;100961.28;;;13.61;85.08
11523;BME280;70090;43.208;27.904;2024-02-04T12:38:54;100954.16;;;13.60;85.41
11523;BME280;70090;43.208;27.904;2024-02-04T12:41:21;100936.72;;;13.56;85.63
11523;BME280;70090;43.208;27.904;2024-02-04T12:43:52;100940.72;;;13.62;85.50